Time;durP1;ratioP1;P1;durP2;ratioP2;P2;SDS_P1;SDS_P2;PMS_P1;PMS_P2;Temp;Humidity;BMP_temperature;BMP_pressure;BME280_temperature;BME280_humidity;BME280_pressure;Samples;Min_cycle;Max_cycle;Signal;HPM_P1;HPM_P2
2021/12/28 00:01:05;;;;;;;40.80;31.40;;;;;;;2.20;100.00;99613.81;4765637;30;20052;-77
2021/12/28 00:03:36;;;;;;;27.42;20.02;;;;;;;2.22;100.00;99609.53;4723967;30;20611;-77
2021/12/28 00:06:05;;;;;;;37.07;28.23;;;;;;;2.23;100.00;99603.47;4739871;30;20056;-78
2021/12/28 00:08:33;;;;;;;54.80;44.00;;;;;;;2.24;100.00;99593.09;4760158;30;20284;-78
2021/12/28 00:11:06;;;;;;;46.17;36.25;;;;;;;2.27;100.00;99607.84;4747068;30;20066;-79
2021/12/28 00:13:36;;;;;;;34.13;21.63;;;;;;;2.27;100.00;99600.94;4726276;30;20767;-77
2021/12/28 00:18:35;;;;;;;30.57;22.00;;;;;;;2.32;100.00;99593.22;4720968;30;20063;-78
2021/12/28 00:21:06;;;;;;;28.83;18.98;;;;;;;2.32;100.00;99596.69;4735867;30;20297;-77
2021/12/28 00:23:38;;;;;;;28.13;18.88;;;;;;;2.34;100.00;99601.91;4732067;30;20044;-79
2021/12/28 00:26:13;;;;;;;27.35;18.65;;;;;;;2.35;100.00;99590.69;4745118;30;20541;-78
2021/12/28 00:28:44;;;;;;;30.38;18.48;;;;;;;2.37;100.00;99594.19;4725786;30;20324;-76
2021/12/28 00:31:15;;;;;;;;;;;;;;;2.39;100.00;99599.41;4713869;30;20409;-77
2021/12/28 00:33:45;;;;;;;28.02;18.48;;;;;;;2.38;100.00;99589.84;4736346;30;20120;-77
2021/12/28 00:36:14;;;;;;;28.88;20.20;;;;;;;2.39;100.00;99595.06;4740649;30;20390;-77
2021/12/28 00:38:43;;;;;;;29.45;19.55;;;;;;;2.41;100.00;99582.97;4744588;30;20284;-78
2021/12/28 00:41:12;;;;;;;30.45;18.88;;;;;;;2.41;100.00;99582.97;4731831;30;20063;-78
2021/12/28 00:43:44;;;;;;;27.77;18.88;;;;;;;2.43;100.00;99581.25;4755558;30;20332;-77
2021/12/28 00:46:12;;;;;;;27.15;18.13;;;;;;;2.44;100.00;99587.31;4753209;30;20056;-78
2021/12/28 00:48:41;;;;;;;25.67;17.83;;;;;;;2.46;100.00;99590.84;4709252;30;20070;-77
2021/12/28 00:51:09;;;;;;;28.73;19.20;;;;;;;2.45;100.00;99581.28;4738037;30;20075;-77
2021/12/28 00:53:38;;;;;;;30.27;19.33;;;;;;;2.46;100.00;99583.06;4732885;30;20052;-77
2021/12/28 00:56:07;;;;;;;31.73;18.98;;;;;;;2.47;100.00;99587.38;4732041;30;20070;-77
2021/12/28 00:58:37;;;;;;;25.75;18.05;;;;;;;2.48;100.00;99590.03;4746043;30;20055;-77
2021/12/28 01:01:06;;;;;;;34.35;20.20;;;;;;;2.47;100.00;99590.84;4740313;30;20052;-77
2021/12/28 01:03:37;;;;;;;26.42;17.30;;;;;;;2.47;100.00;99595.19;4713618;30;20070;-77
2021/12/28 01:06:06;;;;;;;27.17;18.50;;;;;;;2.46;100.00;99593.47;4731683;30;20536;-78
2021/12/28 01:08:34;;;;;;;28.10;18.55;;;;;;;2.45;100.00;99595.16;4748403;30;20058;-77
2021/12/28 01:11:03;;;;;;;27.85;19.85;;;;;;;2.45;100.00;99596.91;4761979;30;20277;-76
2021/12/28 01:13:32;;;;;;;29.50;19.75;;;;;;;2.45;100.00;99597.75;4747892;30;20055;-78
2021/12/28 01:16:01;;;;;;;28.33;18.77;;;;;;;2.44;100.00;99593.44;4704645;30;20067;-77
2021/12/28 01:18:29;;;;;;;33.55;19.88;;;;;;;2.45;100.00;99599.50;4735108;30;20048;-77
2021/12/28 01:21:03;;;;;;;34.35;20.52;;;;;;;2.45;100.00;99583.91;4741263;30;20722;-77
2021/12/28 01:23:31;;;;;;;30.55;20.25;;;;;;;2.45;100.00;99586.50;4749097;30;20082;-78
2021/12/28 01:26:01;;;;;;;34.88;21.30;;;;;;;2.46;100.00;99588.25;4760816;30;20304;-77
2021/12/28 01:28:29;;;;;;;35.35;21.05;;;;;;;2.46;100.00;99585.66;4748261;30;20051;-77
2021/12/28 01:30:58;;;;;;;40.45;22.73;;;;;;;2.47;100.00;99585.66;4744689;30;20253;-77
2021/12/28 01:33:26;;;;;;;36.20;22.00;;;;;;;2.47;100.00;99583.06;4733706;30;20047;-77
2021/12/28 01:35:55;;;;;;;42.47;23.13;;;;;;;2.47;100.00;99580.47;4689890;30;20290;-77
2021/12/28 01:38:23;;;;;;;38.28;22.10;;;;;;;2.49;100.00;99576.16;4723904;30;20396;-77
2021/12/28 01:40:53;;;;;;;52.55;25.90;;;;;;;2.51;100.00;99583.97;4739973;30;20048;-77
2021/12/28 01:43:23;;;;;;;53.45;25.98;;;;;;;2.51;100.00;99576.19;4730868;30;20530;-77
2021/12/28 01:46:00;;;;;;;43.92;25.20;;;;;;;2.53;100.00;99575.38;4726486;30;20551;-77
2021/12/28 01:48:34;;;;;;;53.45;25.80;;;;;;;2.56;100.00;99578.88;4753300;30;20047;-78
2021/12/28 01:51:09;;;;;;;58.20;27.17;;;;;;;2.57;100.00;99578.91;4719127;30;20063;-77
2021/12/28 01:53:38;;;;;;;50.92;26.83;;;;;;;2.60;100.00;99578.06;4754878;30;20051;-77
2021/12/28 01:56:14;;;;;;;46.15;24.75;;;;;;;2.60;100.00;99570.25;4699062;30;20064;-77
2021/12/28 01:58:43;;;;;;;51.10;27.52;;;;;;;2.63;100.00;99565.09;4742905;30;20063;-77
2021/12/28 02:01:12;;;;;;;54.72;27.75;;;;;;;2.64;100.00;99569.44;4721526;30;20060;-77
2021/12/28 02:03:47;;;;;;;63.42;29.15;;;;;;;2.68;100.00;99571.22;4738139;30;20048;-77
2021/12/28 02:06:17;;;;;;;57.90;28.73;;;;;;;2.68;100.00;99566.03;4698746;30;20047;-77
2021/12/28 02:08:49;;;;;;;57.35;29.23;;;;;;;2.71;100.00;99573.88;4697826;30;20059;-77
2021/12/28 02:11:21;;;;;;;60.78;31.67;;;;;;;2.75;100.00;99564.41;4730885;30;20059;-77
2021/12/28 02:13:50;;;;;;;63.07;32.73;;;;;;;2.79;100.00;99569.66;4760166;30;20621;-78
2021/12/28 02:16:18;;;;;;;64.55;30.02;;;;;;;2.82;100.00;99559.31;4739221;30;20278;-77
2021/12/28 02:18:47;;;;;;;60.85;29.13;;;;;;;2.85;100.00;99559.31;4736905;30;20055;-77
2021/12/28 02:21:15;;;;;;;71.82;32.45;;;;;;;2.87;100.00;99561.97;4723630;30;20522;-77
2021/12/28 02:23:44;;;;;;;78.53;33.88;;;;;;;2.89;100.00;99555.03;4741668;30;20402;-77
2021/12/28 02:26:13;;;;;;;71.07;31.80;;;;;;;2.91;100.00;99542.94;4726950;30;20070;-77
2021/12/28 02:28:41;;;;;;;84.05;36.55;;;;;;;2.93;100.00;99533.44;4730749;30;20052;-77
2021/12/28 02:31:10;;;;;;;91.15;36.75;;;;;;;2.95;100.00;99536.94;4761390;30;20546;-77
2021/12/28 02:33:39;;;;;;;100.63;37.97;;;;;;;2.96;100.00;99537.81;4709327;30;20630;-78
2021/12/28 02:36:07;;;;;;;88.07;35.15;;;;;;;2.97;100.00;99531.72;4708860;30;20304;-78
2021/12/28 02:38:36;;;;;;;91.63;35.92;;;;;;;2.98;100.00;99529.16;4729045;30;20064;-78
2021/12/28 02:41:04;;;;;;;117.90;42.33;;;;;;;2.99;100.00;99519.63;4705114;30;20040;-78
2021/12/28 02:43:33;;;;;;;118.00;41.97;;;;;;;3.00;100.00;99517.03;4732875;30;20550;-78
2021/12/28 02:46:05;;;;;;;109.72;39.33;;;;;;;3.03;100.00;99518.81;4738177;30;20048;-77
2021/12/28 02:48:37;;;;;;;81.20;34.05;;;;;;;3.05;100.00;99511.91;4732745;30;20533;-77
2021/12/28 02:51:10;;;;;;;123.07;43.05;;;;;;;3.05;100.00;99510.16;4741211;30;20430;-77
2021/12/28 02:53:39;;;;;;;114.28;39.40;;;;;;;3.08;100.00;99515.41;4728497;30;20056;-77
2021/12/28 02:56:10;;;;;;;102.50;39.00;;;;;;;3.09;100.00;99505.88;4754338;30;20697;-78
2021/12/28 02:58:42;;;;;;;129.35;43.15;;;;;;;3.10;100.00;99507.59;4752312;30;20048;-77
2021/12/28 03:01:22;;;;;;;179.25;47.25;;;;;;;3.09;100.00;99504.13;4747491;30;20048;-77
2021/12/28 03:03:55;;;;;;;115.40;38.73;;;;;;;3.11;100.00;99507.63;4721995;30;20261;-77
2021/12/28 03:06:24;;;;;;;160.27;44.25;;;;;;;3.12;100.00;99513.72;4717302;30;20070;-78
2021/12/28 03:08:55;;;;;;;179.45;46.80;;;;;;;3.14;100.00;99493.78;4757785;30;20349;-78
2021/12/28 03:11:27;;;;;;;144.05;45.13;;;;;;;3.16;100.00;99502.47;4740614;30;20410;-77
2021/12/28 03:14:01;;;;;;;251.93;56.72;;;;;;;3.21;100.00;99499.91;4714861;30;20150;-77
2021/12/28 03:16:31;;;;;;;212.85;51.92;;;;;;;3.22;100.00;99504.28;4746850;30;20044;-77
2021/12/28 03:19:01;;;;;;;163.55;47.15;;;;;;;3.22;100.00;99502.53;4734043;30;20050;-78
2021/12/28 03:21:30;;;;;;;167.65;47.30;;;;;;;3.25;100.00;99496.47;4741350;30;20503;-78
2021/12/28 03:23:59;;;;;;;274.80;59.05;;;;;;;3.25;100.00;99492.19;4741758;30;20056;-77
2021/12/28 03:26:27;;;;;;;253.75;54.80;;;;;;;3.26;100.00;99493.91;4746667;30;20047;-78
2021/12/28 03:28:56;;;;;;;185.45;48.58;;;;;;;3.27;100.00;99493.06;4733814;30;20059;-77
2021/12/28 03:31:27;;;;;;;188.85;49.55;;;;;;;3.28;100.00;99492.19;4731759;30;20712;-78
2021/12/28 03:33:56;;;;;;;248.93;56.45;;;;;;;3.30;100.00;99489.59;4728787;30;20542;-77
2021/12/28 03:36:28;;;;;;;208.10;51.28;;;;;;;3.32;100.00;99493.97;4725366;30;20060;-77
2021/12/28 03:39:00;;;;;;;224.80;53.50;;;;;;;3.32;100.00;99495.69;4709370;30;20201;-77
2021/12/28 03:41:30;;;;;;;248.77;56.72;;;;;;;3.32;100.00;99493.09;4748376;30;20051;-77
2021/12/28 03:44:00;;;;;;;182.65;51.05;;;;;;;3.32;100.00;99483.53;4709706;30;20368;-79
2021/12/28 03:46:29;;;;;;;;;;;;;;;3.34;100.00;99485.31;4769508;30;20056;-77
2021/12/28 03:48:58;;;;;;;237.00;56.13;;;;;;;3.34;100.00;99480.09;4736342;30;20052;-79
2021/12/28 03:51:27;;;;;;;343.77;64.63;;;;;;;3.36;100.00;99471.44;4756462;30;20490;-78
2021/12/28 03:53:56;;;;;;;163.57;47.53;;;;;;;3.37;100.00;99475.81;4708656;30;20687;-77
2021/12/28 03:56:25;;;;;;;182.85;49.35;;;;;;;3.39;100.00;99479.28;4751609;30;20055;-77
2021/12/28 03:58:54;;;;;;;211.05;54.53;;;;;;;3.39;100.00;99471.47;4704395;30;20450;-78
2021/12/28 04:01:25;;;;;;;283.17;61.25;;;;;;;3.39;100.00;99474.09;4767659;30;20044;-78
2021/12/28 04:03:54;;;;;;;236.73;56.50;;;;;;;3.39;100.00;99474.09;4746256;30;20059;-77
2021/12/28 04:06:23;;;;;;;237.43;57.10;;;;;;;3.40;100.00;99474.94;4739753;30;20050;-77
2021/12/28 04:08:52;;;;;;;272.48;60.53;;;;;;;3.40;100.00;99475.81;4738677;30;20615;-78
2021/12/28 04:13:49;;;;;;;331.48;64.97;;;;;;;3.43;100.00;99485.41;4741269;30;20051;-77
2021/12/28 04:16:18;;;;;;;320.10;65.80;;;;;;;3.44;100.00;99476.72;4749294;30;20171;-77
2021/12/28 04:18:47;;;;;;;358.80;67.95;;;;;;;3.44;100.00;99476.72;4754402;30;20044;-77
2021/12/28 04:21:16;;;;;;;297.83;65.50;;;;;;;3.44;100.00;99479.31;4719990;30;20052;-77
2021/12/28 04:23:46;;;;;;;331.02;69.55;;;;;;;3.45;100.00;99476.75;4725153;30;20052;-78
2021/12/28 04:26:17;;;;;;;384.88;72.88;;;;;;;3.46;100.00;99475.00;4711248;30;20056;-76
2021/12/28 04:28:46;;;;;;;378.83;70.93;;;;;;;3.47;100.00;99477.63;4735679;30;20525;-78
2021/12/28 04:31:14;;;;;;;406.65;74.25;;;;;;;3.46;100.00;99470.69;4751510;30;20052;-78
2021/12/28 04:33:44;;;;;;;413.02;69.28;;;;;;;3.46;100.00;99475.00;4751229;30;20533;-78
2021/12/28 04:36:15;;;;;;;385.10;69.93;;;;;;;3.45;100.00;99474.13;4763581;30;20522;-77
2021/12/28 04:38:45;;;;;;;531.03;84.85;;;;;;;3.45;100.00;99462.84;4755478;30;20063;-77
2021/12/28 04:41:14;;;;;;;382.17;71.10;;;;;;;3.44;100.00;99456.78;4710781;30;20052;-77
2021/12/28 04:43:45;;;;;;;257.83;57.03;;;;;;;3.45;100.00;99455.91;4742350;30;20079;-77
2021/12/28 04:46:14;;;;;;;415.42;73.15;;;;;;;3.46;100.00;99454.16;4722504;30;20044;-78
2021/12/28 04:48:42;;;;;;;318.00;62.47;;;;;;;3.48;100.00;99461.16;4738225;30;20044;-79
2021/12/28 04:51:11;;;;;;;406.52;72.28;;;;;;;3.48;100.00;99452.47;4744364;30;20063;-78
2021/12/28 04:53:39;;;;;;;398.80;71.07;;;;;;;3.50;100.00;99450.75;4757019;30;20513;-78
2021/12/28 04:56:08;;;;;;;381.50;69.43;;;;;;;3.51;100.00;99435.13;4710676;30;20181;-77
2021/12/28 04:58:37;;;;;;;276.88;62.40;;;;;;;3.53;100.00;99432.53;4728211;30;20414;-79
2021/12/28 05:01:05;;;;;;;264.95;56.38;;;;;;;3.55;100.00;99428.22;4741401;30;20292;-77
2021/12/28 05:03:34;;;;;;;276.38;61.20;;;;;;;3.56;100.00;99426.50;4765010;30;20067;-77
2021/12/28 05:06:03;;;;;;;395.45;71.30;;;;;;;3.58;100.00;99430.84;4746514;30;20621;-78
2021/12/28 05:08:32;;;;;;;321.80;63.85;;;;;;;3.61;100.00;99422.19;4759968;30;20052;-78
2021/12/28 05:11:01;;;;;;;390.02;68.40;;;;;;;3.63;100.00;99417.84;4740634;30;20055;-78
2021/12/28 05:13:29;;;;;;;384.70;67.82;;;;;;;3.64;100.00;99419.63;4730079;30;20043;-78
2021/12/28 05:15:57;;;;;;;371.95;66.40;;;;;;;3.65;100.00;99418.78;4739814;30;20159;-77
2021/12/28 05:18:26;;;;;;;391.33;68.47;;;;;;;3.66;100.00;99420.50;4765626;30;20056;-78
2021/12/28 05:20:58;;;;;;;392.58;67.88;;;;;;;3.68;100.00;99422.25;4710172;30;20522;-78
2021/12/28 05:23:27;;;;;;;404.58;63.45;;;;;;;3.69;100.00;99416.19;4736570;30;20399;-77
2021/12/28 05:25:56;;;;;;;652.63;83.45;;;;;;;3.71;100.00;99405.78;4739204;30;20370;-78
2021/12/28 05:28:25;;;;;;;432.23;68.85;;;;;;;3.75;100.00;99412.75;4729187;30;20051;-77
2021/12/28 05:30:54;;;;;;;499.77;69.82;;;;;;;3.79;100.00;99405.84;4707127;30;20052;-77
2021/12/28 05:33:22;;;;;;;489.38;70.40;;;;;;;3.81;100.00;99404.13;4764819;30;20045;-78
2021/12/28 05:35:51;;;;;;;531.53;73.45;;;;;;;3.81;100.00;99402.38;4715468;30;20052;-78
2021/12/28 05:38:19;;;;;;;330.27;57.53;;;;;;;3.85;100.00;99396.31;4756057;30;20051;-77
2021/12/28 05:40:48;;;;;;;484.75;69.07;;;;;;;3.87;100.00;99388.50;4724882;30;20059;-78
2021/12/28 05:43:16;;;;;;;396.38;63.95;;;;;;;3.87;100.00;99378.97;4743909;30;20047;-77
2021/12/28 05:45:45;;;;;;;411.48;63.30;;;;;;;3.87;100.00;99376.34;4746141;30;20066;-77
2021/12/28 05:48:13;;;;;;;341.33;59.95;;;;;;;3.87;100.00;99378.09;4744000;30;20056;-77
2021/12/28 05:50:42;;;;;;;432.17;71.03;;;;;;;3.86;100.00;99366.81;4714987;30;20392;-77
2021/12/28 05:53:10;;;;;;;383.63;60.58;;;;;;;3.85;100.00;99375.47;4752853;30;20393;-77
2021/12/28 05:55:39;;;;;;;359.75;58.28;;;;;;;3.82;100.00;99370.25;4762416;30;20056;-77
2021/12/28 05:58:07;;;;;;;495.20;70.97;;;;;;;3.80;100.00;99366.78;4742449;30;20055;-77
2021/12/28 06:00:36;;;;;;;336.15;56.72;;;;;;;3.77;100.00;99364.13;4731401;30;20494;-77
2021/12/28 06:03:05;;;;;;;483.77;67.28;;;;;;;3.75;100.00;99365.84;4726106;30;20082;-77
2021/12/28 06:05:34;;;;;;;381.65;60.92;;;;;;;3.75;100.00;99362.38;4734472;30;20059;-77
2021/12/28 06:08:02;;;;;;;466.50;66.82;;;;;;;3.73;100.00;99359.78;4722859;30;20263;-77
2021/12/28 06:10:45;;;;;;;420.40;64.15;;;;;;;3.70;100.00;99368.44;4752348;30;20055;-77
2021/12/28 06:13:14;;;;;;;442.45;64.90;;;;;;;3.70;100.00;99376.25;4740373;30;20063;-77
2021/12/28 06:15:47;;;;;;;472.40;68.63;;;;;;;3.67;100.00;99373.63;4730767;30;20059;-77
2021/12/28 06:18:15;;;;;;;387.23;58.35;;;;;;;3.67;100.00;99375.38;4739779;30;20048;-77
2021/12/28 06:20:44;;;;;;;311.77;53.33;;;;;;;3.67;100.00;99365.81;4732380;30;20043;-78
2021/12/28 06:23:13;;;;;;;435.38;63.40;;;;;;;3.67;100.00;99364.94;4752429;30;20059;-78
2021/12/28 06:25:42;;;;;;;401.00;61.13;;;;;;;3.67;100.00;99370.16;4750157;30;20056;-77
2021/12/28 06:28:10;;;;;;;330.60;53.45;;;;;;;3.67;100.00;99371.03;4749311;30;20056;-77
2021/12/28 06:30:39;;;;;;;324.77;52.83;;;;;;;3.66;100.00;99365.78;4707539;30;20044;-79
2021/12/28 06:33:07;;;;;;;265.60;50.40;;;;;;;3.65;100.00;99359.72;4726072;30;20692;-78
2021/12/28 06:35:36;;;;;;;368.83;58.97;;;;;;;3.66;100.00;99366.66;4731837;30;20058;-79
2021/12/28 06:38:05;;;;;;;304.67;54.45;;;;;;;3.66;100.00;99348.41;4720802;30;20533;-77
2021/12/28 06:40:33;;;;;;;224.50;47.33;;;;;;;3.66;100.00;99357.97;4732861;30;20051;-77
2021/12/28 06:43:02;;;;;;;202.43;45.58;;;;;;;3.64;100.00;99350.16;4723186;30;20893;-78
2021/12/28 06:45:30;;;;;;;226.73;49.22;;;;;;;3.65;100.00;99351.03;4724724;30;20056;-77
2021/12/28 06:47:59;;;;;;;207.80;44.92;;;;;;;3.66;100.00;99358.84;4737296;30;20685;-77
2021/12/28 06:50:27;;;;;;;238.20;49.10;;;;;;;3.69;100.00;99344.97;4718150;30;20066;-78
2021/12/28 06:52:56;;;;;;;179.70;43.72;;;;;;;3.70;100.00;99355.41;4745609;30;20780;-78
2021/12/28 06:55:24;;;;;;;172.43;44.90;;;;;;;3.72;100.00;99350.19;4749085;30;20055;-78
2021/12/28 06:57:52;;;;;;;171.68;45.05;;;;;;;3.74;100.00;99351.06;4743154;30;20056;-77
2021/12/28 07:00:22;;;;;;;183.63;45.85;;;;;;;3.74;100.00;99345.88;4710893;30;20056;-78
2021/12/28 07:02:50;;;;;;;178.32;45.03;;;;;;;3.75;100.00;99341.53;4742957;30;20502;-77
2021/12/28 07:05:19;;;;;;;200.50;48.17;;;;;;;3.77;100.00;99351.09;4725788;30;20075;-77
2021/12/28 07:07:47;;;;;;;152.32;41.00;;;;;;;3.78;100.00;99345.03;4730987;30;20055;-77
2021/12/28 07:10:20;;;;;;;202.30;46.90;;;;;;;3.79;100.00;99344.16;4723845;30;20237;-77
2021/12/28 07:12:50;;;;;;;177.57;45.15;;;;;;;3.79;100.00;99333.75;4745448;30;20376;-77
2021/12/28 07:15:20;;;;;;;177.32;44.45;;;;;;;3.80;100.00;99332.91;4711489;30;20063;-77
2021/12/28 07:17:50;;;;;;;155.63;43.13;;;;;;;3.80;100.00;99316.38;4746446;30;20125;-77
2021/12/28 07:20:20;;;;;;;129.23;40.85;;;;;;;3.79;100.00;99317.25;4709253;30;20075;-77
2021/12/28 07:22:48;;;;;;;146.73;41.00;;;;;;;3.78;100.00;99316.38;4732371;30;20055;-78
2021/12/28 07:25:17;;;;;;;140.40;40.13;;;;;;;3.77;100.00;99317.22;4733060;30;20085;-77
2021/12/28 07:27:45;;;;;;;106.15;38.67;;;;;;;3.76;100.00;99315.47;4730224;30;20059;-77
2021/12/28 07:30:14;;;;;;;118.63;41.70;;;;;;;3.76;100.00;99307.66;4726521;30;20060;-77
2021/12/28 07:32:42;;;;;;;163.23;45.33;;;;;;;3.75;100.00;99305.06;4729007;30;20059;-77
2021/12/28 07:35:12;;;;;;;104.30;36.17;;;;;;;3.74;100.00;99301.56;4752879;30;20506;-78
2021/12/28 07:37:41;;;;;;;118.63;39.30;;;;;;;3.75;100.00;99299.84;4729973;30;20059;-78
2021/12/28 07:40:10;;;;;;;107.40;39.13;;;;;;;3.74;100.00;99298.09;4733744;30;20060;-77
2021/12/28 07:42:40;;;;;;;85.30;33.33;;;;;;;3.75;100.00;99307.69;4735467;30;20052;-77
2021/12/28 07:45:12;;;;;;;94.88;34.88;;;;;;;3.75;100.00;99295.50;4734289;30;20833;-77
2021/12/28 07:47:42;;;;;;;89.75;33.88;;;;;;;3.77;100.00;99291.19;4709034;30;20549;-77
2021/12/28 07:50:13;;;;;;;86.30;32.90;;;;;;;3.78;100.00;99286.81;4719922;30;20312;-78
2021/12/28 07:52:43;;;;;;;77.05;30.13;;;;;;;3.81;100.00;99285.13;4732070;30;20044;-78
2021/12/28 07:55:14;;;;;;;83.13;32.38;;;;;;;3.83;100.00;99287.72;4742338;30;20047;-77
2021/12/28 07:57:43;;;;;;;73.95;31.73;;;;;;;3.85;100.00;99281.66;4739488;30;20051;-78
2021/12/28 08:00:15;;;;;;;78.32;31.13;;;;;;;3.87;100.00;99290.34;4717822;30;20056;-77
2021/12/28 08:02:46;;;;;;;68.28;27.98;;;;;;;3.90;100.00;99281.69;4721776;30;20054;-77
2021/12/28 08:05:16;;;;;;;68.85;28.58;;;;;;;3.91;100.00;99275.59;4749226;30;20063;-77
2021/12/28 08:07:44;;;;;;;74.93;28.63;;;;;;;3.93;100.00;99270.41;4738219;30;20040;-77
2021/12/28 08:10:16;;;;;;;69.50;28.70;;;;;;;3.95;100.00;99276.50;4733571;30;20064;-78
2021/12/28 08:12:47;;;;;;;70.50;27.70;;;;;;;3.94;100.00;99275.63;4735951;30;20051;-78
2021/12/28 08:15:16;;;;;;;56.67;23.65;;;;;;;3.97;100.00;99279.97;4758215;30;20047;-78
2021/12/28 08:17:45;;;;;;;67.18;28.65;;;;;;;3.96;100.00;99270.44;4750092;30;20402;-77
2021/12/28 08:20:15;;;;;;;62.33;25.23;;;;;;;3.96;100.00;99271.28;4719297;30;20450;-77
2021/12/28 08:22:46;;;;;;;54.60;24.93;;;;;;;3.95;100.00;99268.69;4735909;30;20047;-77
2021/12/28 08:25:16;;;;;;;;;;;;;;;3.93;100.00;99271.28;4714943;30;20847;-77
2021/12/28 08:27:45;;;;;;;62.03;24.67;;;;;;;3.93;100.00;99270.41;4731939;30;19925;-77
2021/12/28 08:30:14;;;;;;;60.92;23.52;;;;;;;3.92;100.00;99272.16;4725187;30;20173;-77
2021/12/28 08:32:43;;;;;;;48.70;22.52;;;;;;;3.90;100.00;99255.63;4740919;30;20052;-79
2021/12/28 08:35:14;;;;;;;40.83;19.15;;;;;;;3.88;100.00;99262.59;4744145;30;20056;-77
2021/12/28 08:37:45;;;;;;;47.45;21.85;;;;;;;3.90;100.00;99269.53;4731893;30;20545;-76
2021/12/28 08:40:16;;;;;;;;;;;;;;;3.92;100.00;99268.69;4729230;30;20062;-73
2021/12/28 08:42:44;;;;;;;47.63;20.17;;;;;;;3.93;100.00;99260.84;4745521;30;20335;-75
2021/12/28 08:45:13;;;;;;;45.92;18.45;;;;;;;3.96;100.00;99267.81;4741252;30;20059;-75
2021/12/28 08:47:42;;;;;;;43.38;18.75;;;;;;;3.98;100.00;99261.75;4693861;30;21869;-75
2021/12/28 08:50:12;;;;;;;41.55;18.90;;;;;;;4.00;100.00;99257.41;4739648;30;20407;-74
2021/12/28 08:52:42;;;;;;;49.58;20.27;;;;;;;4.02;100.00;99254.81;4737313;30;22734;-74
2021/12/28 08:55:20;;;;;;;35.15;17.52;;;;;;;4.02;100.00;99249.59;4734088;30;20048;-75
2021/12/28 08:57:49;;;;;;;38.70;16.63;;;;;;;4.03;100.00;99252.22;4751688;30;20414;-75
2021/12/28 09:00:23;;;;;;;40.65;18.00;;;;;;;4.06;100.00;99240.91;4707135;30;20273;-75
2021/12/28 09:02:54;;;;;;;44.25;18.63;;;;;;;4.06;100.00;99249.63;4739951;30;20047;-75
2021/12/28 09:05:24;;;;;;;39.35;16.98;;;;;;;4.08;100.00;99241.78;4736336;30;20052;-74
2021/12/28 09:07:54;;;;;;;47.65;18.05;;;;;;;4.12;100.00;99243.56;4727375;30;20049;-76
2021/12/28 09:10:25;;;;;;;32.60;16.17;;;;;;;4.16;100.00;99241.81;4722052;30;20276;-75
2021/12/28 09:12:54;;;;;;;;;;;;;;;4.20;100.00;99231.44;4723122;30;20391;-74
2021/12/28 09:15:23;;;;;;;38.28;15.98;;;;;;;4.23;100.00;99230.56;4737538;30;20604;-74
2021/12/28 09:17:53;;;;;;;42.72;16.88;;;;;;;4.25;100.00;99232.31;4730937;30;20055;-74
2021/12/28 09:20:24;;;;;;;34.67;15.25;;;;;;;4.30;100.00;99229.72;4733580;30;20348;-75
2021/12/28 09:23:10;;;;;;;35.40;14.38;;;;;;;4.35;100.00;99224.50;4755125;30;20261;-75
2021/12/28 09:25:41;;;;;;;39.22;16.30;;;;;;;4.40;100.00;99230.59;4739784;30;20426;-76
2021/12/28 09:28:10;;;;;;;33.97;15.02;;;;;;;4.41;100.00;99220.16;4743548;30;20182;-75
2021/12/28 09:30:40;;;;;;;45.60;15.60;;;;;;;4.44;100.00;99219.28;4753024;30;20059;-75
2021/12/28 09:33:10;;;;;;;38.47;15.02;;;;;;;4.48;100.00;99216.72;4726294;30;20075;-75
2021/12/28 09:35:39;;;;;;;32.00;12.68;;;;;;;4.53;100.00;99214.09;4722764;30;20530;-75
2021/12/28 09:38:10;;;;;;;45.88;13.70;;;;;;;4.56;100.00;99221.94;4728257;30;20181;-76
2021/12/28 09:40:39;;;;;;;44.03;13.60;;;;;;;4.61;100.00;99222.81;4733144;30;20040;-76
2021/12/28 09:43:08;;;;;;;41.22;12.63;;;;;;;4.62;100.00;99214.13;4745762;30;20074;-75
2021/12/28 09:45:37;;;;;;;36.25;13.93;;;;;;;4.67;100.00;99214.13;4749094;30;20036;-75
2021/12/28 09:48:08;;;;;;;36.47;12.50;;;;;;;4.68;100.00;99214.09;4713994;30;20063;-75
2021/12/28 09:50:41;;;;;;;25.50;12.00;;;;;;;4.72;100.00;99214.13;4704141;30;20075;-75
2021/12/28 09:53:14;;;;;;;40.67;15.02;;;;;;;4.74;100.00;99209.78;4736235;30;20679;-75
2021/12/28 09:55:43;;;;;;;36.40;12.48;;;;;;;4.78;100.00;99201.06;4749331;30;20051;-74
2021/12/28 09:58:11;;;;;;;35.70;12.20;;;;;;;4.80;100.00;99201.94;4736065;30;20071;-76
2021/12/28 10:01:00;;;;;;;34.28;11.35;;;;;;;4.85;100.00;99208.03;4729128;30;20047;-75
2021/12/28 10:03:32;;;;;;;33.88;10.98;;;;;;;4.87;100.00;99206.28;4739008;30;20043;-76
2021/12/28 10:06:27;;;;;;;34.80;13.93;;;;;;;4.91;100.00;99194.97;4707590;30;20470;-75
2021/12/28 10:09:09;;;;;;;34.85;12.63;;;;;;;4.95;100.00;99196.72;4744700;30;20048;-75
2021/12/28 10:11:48;;;;;;;37.85;12.65;;;;;;;4.97;100.00;99192.38;4740295;30;20292;-75
2021/12/28 10:14:23;;;;;;;39.65;14.93;;;;;;;5.00;100.00;99179.31;4739440;30;20048;-75
2021/12/28 10:16:56;;;;;;;36.70;11.57;;;;;;;5.05;100.00;99174.09;4715462;30;20094;-75
2021/12/28 10:19:33;;;;;;;33.63;11.43;;;;;;;5.10;100.00;99169.72;4752826;30;20426;-76
2021/12/28 10:22:32;;;;;;;32.42;13.35;;;;;;;5.14;100.00;99170.59;4718714;30;20052;-75
2021/12/28 10:25:03;;;;;;;25.35;9.55;;;;;;;5.17;100.00;99158.41;4722901;30;20062;-76
2021/12/28 10:27:32;;;;;;;23.90;9.48;;;;;;;5.19;100.00;99161.00;4714533;30;20052;-76
2021/12/28 10:30:11;;;;;;;27.08;9.65;;;;;;;5.22;100.00;99155.78;4728928;30;20529;-75
2021/12/28 10:32:43;;;;;;;33.17;10.25;;;;;;;5.25;100.00;99143.59;4726621;30;20082;-76
2021/12/28 10:35:19;;;;;;;29.27;11.88;;;;;;;5.29;100.00;99141.81;4759281;30;20066;-75
2021/12/28 10:37:52;;;;;;;31.00;9.38;;;;;;;5.34;100.00;99121.78;4717612;30;20032;-75
2021/12/28 10:40:24;;;;;;;31.33;8.45;;;;;;;5.36;100.00;99127.88;4740339;30;20415;-76
2021/12/28 10:42:54;;;;;;;30.02;8.80;;;;;;;5.39;100.00;99125.28;4721096;30;20415;-75
2021/12/28 10:45:36;;;;;;;27.42;9.88;;;;;;;5.43;100.00;99126.13;4738245;30;20043;-77
2021/12/28 10:48:12;;;;;;;29.90;7.93;;;;;;;5.47;100.00;99122.63;4748269;30;20056;-76
2021/12/28 10:51:04;;;;;;;29.60;9.63;;;;;;;5.49;100.00;99126.09;4733538;30;20048;-76
2021/12/28 10:53:55;;;;;;;31.00;8.15;;;;;;;5.52;100.00;99114.75;4717875;30;20052;-76
2021/12/28 10:56:25;;;;;;;24.73;8.10;;;;;;;5.52;100.00;99110.44;4759889;30;20067;-76
2021/12/28 10:58:53;;;;;;;27.52;8.10;;;;;;;5.52;100.00;99104.31;4729135;30;20056;-75
2021/12/28 11:01:25;;;;;;;34.40;8.98;;;;;;;5.53;100.00;99106.06;4719193;30;20043;-76
2021/12/28 11:04:05;;;;;;;24.17;8.38;;;;;;;5.53;100.00;99096.47;4759664;30;20055;-77
2021/12/28 11:07:02;;;;;;;27.13;8.45;;;;;;;5.54;100.00;99085.16;4746292;30;20075;-75
2021/12/28 11:09:31;;;;;;;19.33;8.20;;;;;;;5.56;100.00;99077.31;4734709;30;20498;-76
2021/12/28 11:12:00;;;;;;;22.17;8.23;;;;;;;5.57;100.00;99084.25;4717143;30;20052;-77
2021/12/28 11:14:30;;;;;;;26.23;8.13;;;;;;;5.58;100.00;99078.16;4710710;30;20414;-76
2021/12/28 11:17:02;;;;;;;21.30;7.95;;;;;;;5.60;100.00;99071.19;4730631;30;20419;-77
2021/12/28 11:19:34;;;;;;;25.83;8.05;;;;;;;5.62;100.00;99072.91;4741351;30;20048;-76
2021/12/28 11:22:09;;;;;;;25.85;8.38;;;;;;;5.66;100.00;99060.69;4723283;30;20058;-76
2021/12/28 11:24:47;;;;;;;29.98;9.07;;;;;;;5.67;100.00;99059.81;4719579;30;20055;-76
2021/12/28 11:27:27;;;;;;;26.40;8.20;;;;;;;5.69;100.00;99052.84;4758429;30;20066;-76
2021/12/28 11:30:00;;;;;;;24.33;9.68;;;;;;;5.70;100.00;99051.09;4723786;30;20063;-76
2021/12/28 11:32:29;;;;;;;25.35;9.10;;;;;;;5.71;100.00;99042.38;4708432;30;20044;-77
2021/12/28 11:34:58;;;;;;;26.67;8.30;;;;;;;5.72;100.00;99044.13;4721624;30;20146;-76
2021/12/28 11:37:31;;;;;;;34.70;9.75;;;;;;;5.72;100.00;99044.13;4702910;30;20051;-76